EZY96TY EGCC-LEAL
Flight info
| Callsign | EZY96TY |
|---|---|
| Flight time | N/A |
| Altitude | 37000 |
| Route | SANBA1Y/23L SANBA N859 HON UN859 SOPIL DCT BALAN DCT LMG DCT PIMQO DCT AGN DCT ANETO DCT POSSY DCT XIMPE DCT RIMES N860 VLC |
| Aircraft | A320/M-SDE2E3FGHIJ1RWXYZ/LB1 |
Departure
| Time | N/A |
|---|---|
| Airport | Manchester Airport (EGCC) |
Arrival
| Time | 2026-05-04 20:20 |
|---|---|
| Airport | Alicante-Elche Miguel Hernández Airport (LEAL) |
| Time | Latitude | Longitude | Altitude | Speed | Heading |
|---|---|---|---|---|---|
| 2026-05-04 20:06 | 39.03268 | -0.64384 | 19087 ft | 321 kts | 200° |
| 2026-05-04 20:06 | 39.01156 | -0.65127 | 18658 ft | 308 kts | 201° |
| 2026-05-04 20:06 | 38.99110 | -0.65847 | 18242 ft | 304 kts | 201° |
| 2026-05-04 20:06 | 38.97091 | -0.66562 | 17818 ft | 304 kts | 201° |
| 2026-05-04 20:07 | 38.95053 | -0.67284 | 17402 ft | 304 kts | 201° |
| 2026-05-04 20:07 | 38.93016 | -0.68004 | 16994 ft | 304 kts | 200° |
| 2026-05-04 20:07 | 38.90974 | -0.68723 | 16582 ft | 304 kts | 200° |
| 2026-05-04 20:07 | 38.88938 | -0.69440 | 16172 ft | 303 kts | 200° |
| 2026-05-04 20:08 | 38.86891 | -0.70165 | 15676 ft | 306 kts | 200° |
| 2026-05-04 20:08 | 38.84832 | -0.70901 | 15251 ft | 307 kts | 200° |
| 2026-05-04 20:08 | 38.82776 | -0.71642 | 14858 ft | 307 kts | 200° |
| 2026-05-04 20:08 | 38.80750 | -0.72373 | 14494 ft | 306 kts | 199° |
| 2026-05-04 20:09 | 38.78698 | -0.73111 | 14117 ft | 305 kts | 199° |
| 2026-05-04 20:09 | 38.76660 | -0.73844 | 13737 ft | 303 kts | 199° |
| 2026-05-04 20:09 | 38.74621 | -0.74576 | 13333 ft | 303 kts | 199° |
| 2026-05-04 20:09 | 38.72595 | -0.75300 | 12944 ft | 302 kts | 199° |
| 2026-05-04 20:10 | 38.70571 | -0.76019 | 12563 ft | 301 kts | 198° |
| 2026-05-04 20:10 | 38.68576 | -0.76728 | 12189 ft | 301 kts | 198° |
| 2026-05-04 20:10 | 38.66557 | -0.77446 | 11806 ft | 300 kts | 198° |
| 2026-05-04 20:10 | 38.64545 | -0.78160 | 11413 ft | 300 kts | 198° |
| 2026-05-04 20:11 | 38.62536 | -0.78875 | 11008 ft | 299 kts | 198° |
| 2026-05-04 20:11 | 38.60519 | -0.79593 | 10608 ft | 299 kts | 197° |
| 2026-05-04 20:11 | 38.58538 | -0.80299 | 10280 ft | 296 kts | 197° |
| 2026-05-04 20:11 | 38.57211 | -0.80771 | 10187 ft | 290 kts | 197° |
| 2026-05-04 20:12 | 38.54662 | -0.81679 | 9806 ft | 285 kts | 197° |
| 2026-05-04 20:12 | 38.52745 | -0.82361 | 9423 ft | 284 kts | 197° |
| 2026-05-04 20:12 | 38.50862 | -0.83034 | 9035 ft | 283 kts | 197° |
| 2026-05-04 20:12 | 38.48960 | -0.83712 | 8614 ft | 283 kts | 197° |
| 2026-05-04 20:13 | 38.47066 | -0.84381 | 8192 ft | 282 kts | 198° |
| 2026-05-04 20:13 | 38.45173 | -0.85053 | 7737 ft | 282 kts | 198° |
| 2026-05-04 20:13 | 38.43323 | -0.85700 | 7608 ft | 269 kts | 198° |
| 2026-05-04 20:13 | 38.41556 | -0.86324 | 7468 ft | 258 kts | 198° |
| 2026-05-04 20:14 | 38.39876 | -0.86920 | 7345 ft | 249 kts | 198° |
| 2026-05-04 20:14 | 38.38222 | -0.87501 | 7237 ft | 243 kts | 196° |
| 2026-05-04 20:14 | 38.36564 | -0.87713 | 7102 ft | 238 kts | 178° |
| 2026-05-04 20:14 | 38.34898 | -0.87253 | 6549 ft | 251 kts | 159° |
| 2026-05-04 20:15 | 38.33446 | -0.86063 | 6308 ft | 249 kts | 137° |
| 2026-05-04 20:15 | 38.32407 | -0.84347 | 6174 ft | 242 kts | 117° |
| 2026-05-04 20:15 | 38.31999 | -0.83041 | 6072 ft | 237 kts | 104° |
| 2026-05-04 20:15 | 38.31608 | -0.80358 | 5929 ft | 222 kts | 99° |
| 2026-05-04 20:16 | 38.31348 | -0.78463 | 5679 ft | 215 kts | 99° |
| 2026-05-04 20:16 | 38.31182 | -0.77250 | 5624 ft | 203 kts | 99° |
| 2026-05-04 20:16 | 38.30889 | -0.75054 | 5296 ft | 178 kts | 98° |
| 2026-05-04 20:16 | 38.30684 | -0.73536 | 4986 ft | 169 kts | 99° |
| 2026-05-04 20:17 | 38.30478 | -0.72098 | 4662 ft | 163 kts | 97° |
| 2026-05-04 20:17 | 38.30328 | -0.70716 | 4365 ft | 158 kts | 96° |
| 2026-05-04 20:17 | 38.30139 | -0.69302 | 3962 ft | 160 kts | 100° |
| 2026-05-04 20:17 | 38.29900 | -0.67949 | 3622 ft | 156 kts | 102° |
| 2026-05-04 20:18 | 38.29824 | -0.67496 | 3511 ft | 154 kts | 100° |
| 2026-05-04 20:18 | 38.29658 | -0.66144 | 3078 ft | 157 kts | 95° |
| 2026-05-04 20:18 | 38.29517 | -0.64730 | 2552 ft | 164 kts | 98° |
| 2026-05-04 20:18 | 38.29138 | -0.62389 | 1774 ft | 164 kts | 101° |
| 2026-05-04 20:19 | 38.29017 | -0.61443 | 1458 ft | 163 kts | 97° |
| 2026-05-04 20:19 | 38.28757 | -0.59543 | 808 ft | 162 kts | 100° |
| 2026-05-04 20:19 | 38.28553 | -0.58149 | 381 ft | 158 kts | 98° |
| 2026-05-04 20:19 | 38.28363 | -0.56818 | 144 ft | 146 kts | 101° |
| 2026-05-04 20:20 | 38.28221 | -0.55776 | 100 ft | 80 kts | 101° |
| 2026-05-04 20:20 | 38.28140 | -0.55231 | 80 ft | 41 kts | 100° |
| 2026-05-04 20:20 | 38.28135 | -0.55000 | 70 ft | 23 kts | 82° |
| 2026-05-04 20:20 | 38.28171 | -0.54790 | 59 ft | 25 kts | 71° |
| 2026-05-04 20:21 | 38.28245 | -0.54733 | 61 ft | 6 kts | 303° |
| 2026-05-04 20:21 | 38.28259 | -0.54837 | 67 ft | 30 kts | 280° |
| 2026-05-04 20:21 | 38.28331 | -0.55199 | 85 ft | 10 kts | 341° |
| 2026-05-04 20:22 | 38.28403 | -0.55157 | 87 ft | 13 kts | 17° |
| 2026-05-04 20:22 | 38.28445 | -0.55241 | 87 ft | 18 kts | 280° |
| 2026-05-04 20:22 | 38.28470 | -0.55409 | 95 ft | 18 kts | 279° |
| 2026-05-04 20:22 | 38.28488 | -0.55549 | 99 ft | 12 kts | 280° |
| 2026-05-04 20:23 | 38.28539 | -0.55593 | 99 ft | 8 kts | 7° |
| 2026-05-04 20:23 | 38.28565 | -0.55585 | 99 ft | 0 kts | 13° |